Time;durP1;ratioP1;P1;durP2;ratioP2;P2;SDS_P1;SDS_P2;PMS_P1;PMS_P2;Temp;Humidity;BMP_temperature;BMP_pressure;BME280_temperature;BME280_humidity;BME280_pressure;Samples;Min_cycle;Max_cycle;Signal;HPM_P1;HPM_P2
2022/10/20 00:00:35;;;;;;;14.87;13.47;;;;;;;;;;5052862;28;20484;-76
2022/10/20 00:03:02;;;;;;;14.43;13.13;;;;;;;;;;5051797;28;20444;-77
2022/10/20 00:05:29;;;;;;;16.03;14.53;;;;;;;;;;5053095;28;20441;-75
2022/10/20 00:07:56;;;;;;;15.67;14.07;;;;;;;;;;5051917;28;20446;-76
2022/10/20 00:10:23;;;;;;;15.93;14.43;;;;;;;;;;5052024;28;20937;-76
2022/10/20 00:12:52;;;;;;;15.47;13.87;;;;;;;;;;5063945;28;20532;-76
2022/10/20 00:15:19;;;;;;;15.80;14.30;;;;;;;;;;5071779;28;20441;-76
2022/10/20 00:17:46;;;;;;;15.43;14.03;;;;;;;;;;5072267;28;20437;-75
2022/10/20 00:20:13;;;;;;;15.63;14.20;;;;;;;;;;5072227;28;20436;-75
2022/10/20 00:22:40;;;;;;;15.33;13.73;;;;;;;;;;5071576;28;20864;-75
2022/10/20 00:25:07;;;;;;;15.17;13.67;;;;;;;;;;5072102;28;20452;-75
2022/10/20 00:27:34;;;;;;;14.90;13.27;;;;;;;;;;5072058;28;20452;-75
2022/10/20 00:30:02;;;;;;;13.23;12.03;;;;;;;;;;5071413;28;20476;-75
2022/10/20 00:32:29;;;;;;;15.90;14.20;;;;;;;;;;5071797;28;20465;-76
2022/10/20 00:34:57;;;;;;;15.37;13.87;;;;;;;;;;5071900;28;20517;-75
2022/10/20 00:37:24;;;;;;;16.60;13.67;;;;;;;;;;5071577;28;20862;-75
2022/10/20 00:39:51;;;;;;;16.27;14.60;;;;;;;;;;5071528;28;20451;-75
2022/10/20 00:42:18;;;;;;;17.30;14.00;;;;;;;;;;5071421;28;21027;-75
2022/10/20 00:44:48;;;;;;;16.03;14.47;;;;;;;;;;5071446;28;21050;-76
2022/10/20 00:47:18;;;;;;;16.87;15.37;;;;;;;;;;5072051;28;20911;-75
2022/10/20 00:49:46;;;;;;;17.03;15.30;;;;;;;;;;5071761;28;20487;-77
2022/10/20 00:52:13;;;;;;;16.90;15.20;;;;;;;;;;5071096;28;20459;-75
2022/10/20 00:54:40;;;;;;;16.40;14.67;;;;;;;;;;5071197;28;20456;-75
2022/10/20 00:57:07;;;;;;;16.20;14.50;;;;;;;;;;5071322;28;20979;-76
2022/10/20 00:59:36;;;;;;;16.50;14.57;;;;;;;;;;5071755;28;20440;-76
2022/10/20 01:02:05;;;;;;;14.47;13.17;;;;;;;;;;5071738;28;20468;-76
2022/10/20 01:04:33;;;;;;;18.07;15.20;;;;;;;;;;5070408;28;20941;-76
2022/10/20 01:07:01;;;;;;;17.00;15.23;;;;;;;;;;5071551;28;20444;-76
2022/10/20 01:09:28;;;;;;;16.67;14.97;;;;;;;;;;5071248;28;20468;-76
2022/10/20 01:11:58;;;;;;;15.27;13.93;;;;;;;;;;5066415;28;20976;-75
2022/10/20 01:14:29;;;;;;;15.57;14.07;;;;;;;;;;5050503;28;20453;-75
2022/10/20 01:16:59;;;;;;;15.87;14.37;;;;;;;;;;5051181;28;20441;-75
2022/10/20 01:19:41;;;;;;;15.60;14.10;;;;;;;;;;5051038;28;20437;-76
2022/10/20 01:22:25;;;;;;;16.57;14.97;;;;;;;;;;5038423;28;20495;-75
2022/10/20 01:24:56;;;;;;;18.33;14.87;;;;;;;;;;5051052;28;20760;-76
2022/10/20 01:27:28;;;;;;;14.53;13.13;;;;;;;;;;5051218;28;20441;-76
2022/10/20 01:30:00;;;;;;;15.30;13.70;;;;;;;;;;5051134;28;20504;-75
2022/10/20 01:32:33;;;;;;;15.77;14.17;;;;;;;;;;5050650;28;20476;-77
2022/10/20 01:35:04;;;;;;;15.73;14.33;;;;;;;;;;5051167;28;20430;-75
2022/10/20 01:37:34;;;;;;;14.80;13.37;;;;;;;;;;5051515;28;20445;-76
2022/10/20 01:40:03;;;;;;;16.37;14.50;;;;;;;;;;5051056;28;20441;-76
2022/10/20 01:42:31;;;;;;;16.43;14.73;;;;;;;;;;5050615;28;20461;-76
2022/10/20 01:45:00;;;;;;;18.03;13.90;;;;;;;;;;5050572;28;20442;-76
2022/10/20 01:47:29;;;;;;;16.60;14.90;;;;;;;;;;5051163;28;20450;-76
2022/10/20 01:49:57;;;;;;;16.47;14.77;;;;;;;;;;5051081;28;20997;-75
2022/10/20 01:52:25;;;;;;;18.90;14.90;;;;;;;;;;5050891;28;21008;-75
2022/10/20 01:54:52;;;;;;;15.80;14.23;;;;;;;;;;5050215;28;20980;-76
2022/10/20 01:57:26;;;;;;;19.70;14.70;;;;;;;;;;5050895;28;20448;-76
2022/10/20 02:00:02;;;;;;;16.33;14.67;;;;;;;;;;5050786;28;20857;-76
2022/10/20 02:02:35;;;;;;;17.13;15.53;;;;;;;;;;5050324;28;20500;-75
2022/10/20 02:05:10;;;;;;;16.40;13.43;;;;;;;;;;5050863;28;20679;-76
2022/10/20 02:07:38;;;;;;;15.63;14.13;;;;;;;;;;5050760;28;20437;-75
2022/10/20 02:10:10;;;;;;;16.27;14.77;;;;;;;;;;5050399;28;20482;-75
2022/10/20 02:12:39;;;;;;;16.53;14.90;;;;;;;;;;5060545;28;20900;-75
2022/10/20 02:15:09;;;;;;;16.03;14.30;;;;;;;;;;5070687;28;20445;-75
2022/10/20 02:17:37;;;;;;;17.43;15.63;;;;;;;;;;5070457;28;20486;-75
2022/10/20 02:20:06;;;;;;;16.63;15.00;;;;;;;;;;5070710;28;20471;-75
2022/10/20 02:22:33;;;;;;;16.47;14.33;;;;;;;;;;5069713;28;20457;-75
2022/10/20 02:25:00;;;;;;;18.40;14.77;;;;;;;;;;5070223;28;20444;-76
2022/10/20 02:27:29;;;;;;;15.97;14.33;;;;;;;;;;5070177;28;20459;-76
2022/10/20 02:29:59;;;;;;;17.00;15.07;;;;;;;;;;5070312;28;20543;-76
2022/10/20 02:32:28;;;;;;;16.13;14.37;;;;;;;;;;5069936;28;20468;-76
2022/10/20 02:34:55;;;;;;;17.20;14.97;;;;;;;;;;5069125;28;20815;-76
2022/10/20 02:37:22;;;;;;;16.67;14.87;;;;;;;;;;5069993;28;20440;-75
2022/10/20 02:39:49;;;;;;;17.33;14.80;;;;;;;;;;5070000;28;20490;-75
2022/10/20 02:42:16;;;;;;;15.03;13.43;;;;;;;;;;5070434;28;20468;-76
2022/10/20 02:44:43;;;;;;;16.00;14.47;;;;;;;;;;5069331;28;20494;-75
2022/10/20 02:47:10;;;;;;;16.23;14.53;;;;;;;;;;5070187;28;20441;-75
2022/10/20 02:49:39;;;;;;;16.70;15.00;;;;;;;;;;5069822;28;20999;-76
2022/10/20 02:52:06;;;;;;;16.43;14.80;;;;;;;;;;5069938;28;20464;-76
2022/10/20 02:54:33;;;;;;;19.07;16.53;;;;;;;;;;5069584;28;20449;-76
2022/10/20 02:57:00;;;;;;;17.27;15.53;;;;;;;;;;5070135;28;20451;-74
2022/10/20 02:59:27;;;;;;;17.80;15.17;;;;;;;;;;5070064;28;20452;-74
2022/10/20 03:01:54;;;;;;;17.33;14.07;;;;;;;;;;5069760;28;20467;-75
2022/10/20 03:04:21;;;;;;;20.53;15.20;;;;;;;;;;5069412;28;20445;-76
2022/10/20 03:06:49;;;;;;;20.03;15.10;;;;;;;;;;5069925;28;20447;-75
2022/10/20 03:09:16;;;;;;;18.63;13.53;;;;;;;;;;5069939;28;20488;-76
2022/10/20 03:11:43;;;;;;;17.63;15.10;;;;;;;;;;5066599;28;20484;-75
2022/10/20 03:14:11;;;;;;;17.33;14.23;;;;;;;;;;5052465;28;20445;-76
2022/10/20 03:16:38;;;;;;;17.87;15.30;;;;;;;;;;5056776;28;20457;-75
2022/10/20 03:19:05;;;;;;;16.23;14.60;;;;;;;;;;5052550;28;20822;-75
2022/10/20 03:21:32;;;;;;;16.23;14.50;;;;;;;;;;5051782;28;20832;-75
2022/10/20 03:24:00;;;;;;;18.60;16.07;;;;;;;;;;5051405;28;20445;-75
2022/10/20 03:26:28;;;;;;;17.20;15.40;;;;;;;;;;5050409;28;20449;-75
2022/10/20 03:28:55;;;;;;;15.90;14.20;;;;;;;;;;5052183;28;20442;-76
2022/10/20 03:31:22;;;;;;;20.27;16.20;;;;;;;;;;5053291;28;20663;-76
2022/10/20 03:33:49;;;;;;;19.57;15.57;;;;;;;;;;5053058;28;20457;-76
2022/10/20 03:36:16;;;;;;;17.93;15.43;;;;;;;;;;5053291;28;20520;-75
2022/10/20 03:38:43;;;;;;;16.77;15.00;;;;;;;;;;5053341;28;20452;-76
2022/10/20 03:41:11;;;;;;;18.30;15.80;;;;;;;;;;5053162;28;20522;-75
2022/10/20 03:43:39;;;;;;;18.07;14.60;;;;;;;;;;5052224;28;20453;-75
2022/10/20 03:46:07;;;;;;;17.17;15.33;;;;;;;;;;5053554;28;20445;-75
2022/10/20 03:48:34;;;;;;;18.10;15.77;;;;;;;;;;5053457;28;20658;-75
2022/10/20 03:51:02;;;;;;;18.37;15.07;;;;;;;;;;5053242;28;20477;-76
2022/10/20 03:53:29;;;;;;;16.93;15.07;;;;;;;;;;5052320;28;20441;-75
2022/10/20 03:55:56;;;;;;;19.97;17.20;;;;;;;;;;5052424;28;20453;-76
2022/10/20 03:58:24;;;;;;;17.40;15.60;;;;;;;;;;5052779;28;20454;-75
2022/10/20 04:00:52;;;;;;;22.03;17.50;;;;;;;;;;5052828;28;20452;-76
2022/10/20 04:03:19;;;;;;;17.23;15.43;;;;;;;;;;5052203;28;20460;-76
2022/10/20 04:05:46;;;;;;;17.77;15.87;;;;;;;;;;5052647;28;20450;-75
2022/10/20 04:08:13;;;;;;;19.40;16.03;;;;;;;;;;5053774;28;20464;-75
2022/10/20 04:10:40;;;;;;;17.87;15.57;;;;;;;;;;5053237;28;20492;-76
2022/10/20 04:13:07;;;;;;;18.17;15.67;;;;;;;;;;5053261;28;20449;-76
2022/10/20 04:15:36;;;;;;;19.33;16.50;;;;;;;;;;5053935;28;20430;-75
2022/10/20 04:18:03;;;;;;;17.20;15.40;;;;;;;;;;5053407;28;20437;-75
2022/10/20 04:20:30;;;;;;;18.87;16.47;;;;;;;;;;5052431;28;21046;-75
2022/10/20 04:22:57;;;;;;;17.77;15.90;;;;;;;;;;5052280;28;20449;-74
2022/10/20 04:25:24;;;;;;;17.83;15.93;;;;;;;;;;5052542;28;20449;-75
2022/10/20 04:27:51;;;;;;;18.33;16.03;;;;;;;;;;5053107;28;20448;-75
2022/10/20 04:30:18;;;;;;;25.43;18.50;;;;;;;;;;5053129;28;20507;-75
2022/10/20 04:32:46;;;;;;;22.00;17.27;;;;;;;;;;5052429;28;20453;-74
2022/10/20 04:35:13;;;;;;;20.47;17.20;;;;;;;;;;5052481;28;20445;-76
2022/10/20 04:37:40;;;;;;;27.57;17.53;;;;;;;;;;5052441;28;20441;-75
2022/10/20 04:40:08;;;;;;;21.17;16.97;;;;;;;;;;5051190;28;20446;-76
2022/10/20 04:42:35;;;;;;;31.50;19.40;;;;;;;;;;5051625;28;20452;-76
2022/10/20 04:45:02;;;;;;;21.70;17.27;;;;;;;;;;5051921;28;20449;-74
2022/10/20 04:47:31;;;;;;;24.80;19.30;;;;;;;;;;5051947;28;20452;-76
2022/10/20 04:50:00;;;;;;;21.47;18.93;;;;;;;;;;5052527;28;20493;-75
2022/10/20 04:52:28;;;;;;;21.17;17.97;;;;;;;;;;5051760;28;20469;-76
2022/10/20 04:54:56;;;;;;;23.80;18.87;;;;;;;;;;5052396;28;20434;-76
2022/10/20 04:57:23;;;;;;;19.40;17.37;;;;;;;;;;5051836;28;20964;-76
2022/10/20 04:59:50;;;;;;;24.53;19.63;;;;;;;;;;5051977;28;20445;-76
2022/10/20 05:02:17;;;;;;;23.93;19.00;;;;;;;;;;5052273;28;20461;-75
2022/10/20 05:04:44;;;;;;;23.47;19.27;;;;;;;;;;5051458;28;20797;-75
2022/10/20 05:07:13;;;;;;;22.63;18.97;;;;;;;;;;5051784;28;20449;-75
2022/10/20 05:09:40;;;;;;;24.13;19.80;;;;;;;;;;5051845;28;20452;-75
2022/10/20 05:12:07;;;;;;;24.73;21.90;;;;;;;;;;5052189;28;20465;-75
2022/10/20 05:14:34;;;;;;;25.17;19.50;;;;;;;;;;5051373;28;20817;-76
2022/10/20 05:17:01;;;;;;;21.70;18.63;;;;;;;;;;5052465;28;20453;-75
2022/10/20 05:19:28;;;;;;;20.07;17.53;;;;;;;;;;5051799;28;20453;-75
2022/10/20 05:21:55;;;;;;;22.53;18.30;;;;;;;;;;5052098;28;20461;-76
2022/10/20 05:24:24;;;;;;;20.90;17.13;;;;;;;;;;5050688;28;20437;-76
2022/10/20 05:26:51;;;;;;;23.20;18.57;;;;;;;;;;5051792;28;20450;-76
2022/10/20 05:29:18;;;;;;;21.63;19.13;;;;;;;;;;5051751;28;20460;-76
2022/10/20 05:31:45;;;;;;;23.97;18.30;;;;;;;;;;5051505;28;20482;-76
2022/10/20 05:34:12;;;;;;;22.73;18.23;;;;;;;;;;5050777;28;20445;-76
2022/10/20 05:36:39;;;;;;;21.53;17.90;;;;;;;;;;5051365;28;21143;-76
2022/10/20 05:39:07;;;;;;;24.27;17.73;;;;;;;;;;5051334;28;20456;-76
2022/10/20 05:41:35;;;;;;;26.83;20.43;;;;;;;;;;5051006;28;20461;-76
2022/10/20 05:44:03;;;;;;;21.60;18.97;;;;;;;;;;5050295;28;20496;-76
2022/10/20 05:46:31;;;;;;;28.07;18.73;;;;;;;;;;5050893;28;20450;-75
2022/10/20 05:48:59;;;;;;;22.70;19.00;;;;;;;;;;5050724;28;20453;-76
2022/10/20 05:51:28;;;;;;;25.90;17.17;;;;;;;;;;5049892;28;20485;-76
2022/10/20 05:53:55;;;;;;;35.83;31.33;;;;;;;;;;5050559;28;20445;-75
2022/10/20 05:56:23;;;;;;;36.67;28.23;;;;;;;;;;5050909;28;20941;-76
2022/10/20 05:58:51;;;;;;;29.57;19.83;;;;;;;;;;5051053;28;20974;-75
2022/10/20 06:01:22;;;;;;;19.57;16.70;;;;;;;;;;5050470;28;20462;-76
2022/10/20 06:03:50;;;;;;;22.10;16.87;;;;;;;;;;5050245;28;20537;-76
2022/10/20 06:06:17;;;;;;;20.50;17.33;;;;;;;;;;5064824;28;20467;-76
2022/10/20 06:08:44;;;;;;;20.23;16.30;;;;;;;;;;5069076;28;20441;-76
2022/10/20 06:11:11;;;;;;;21.53;17.00;;;;;;;;;;5070487;28;20476;-76
2022/10/20 06:13:38;;;;;;;21.57;17.87;;;;;;;;;;5069419;28;20448;-75
2022/10/20 06:16:08;;;;;;;19.00;16.27;;;;;;;;;;5057922;28;20450;-75
2022/10/20 06:18:37;;;;;;;21.57;16.60;;;;;;;;;;5056807;28;20457;-76
2022/10/20 06:21:05;;;;;;;22.83;16.03;;;;;;;;;;5056031;28;20506;-76
2022/10/20 06:23:32;;;;;;;21.73;17.97;;;;;;;;;;5069589;28;20805;-76
2022/10/20 06:26:02;;;;;;;18.63;14.97;;;;;;;;;;5070295;28;20527;-76
2022/10/20 06:28:30;;;;;;;21.03;15.63;;;;;;;;;;5070707;28;20870;-76
2022/10/20 06:30:57;;;;;;;18.37;15.17;;;;;;;;;;5070725;28;20512;-77
2022/10/20 06:33:25;;;;;;;18.70;16.07;;;;;;;;;;5070126;28;20441;-76
2022/10/20 06:35:52;;;;;;;17.70;15.63;;;;;;;;;;5071334;28;20440;-76
2022/10/20 06:38:19;;;;;;;23.33;16.50;;;;;;;;;;5069778;28;20456;-75
2022/10/20 06:40:46;;;;;;;17.37;14.70;;;;;;;;;;5068924;28;20976;-76
2022/10/20 06:43:13;;;;;;;15.63;14.03;;;;;;;;;;5068270;28;20444;-76
2022/10/20 06:45:41;;;;;;;18.53;15.03;;;;;;;;;;5069121;28;20510;-76
2022/10/20 06:48:08;;;;;;;18.10;15.60;;;;;;;;;;5069055;28;20448;-75
2022/10/20 06:50:36;;;;;;;16.97;14.50;;;;;;;;;;5068552;28;20491;-76
2022/10/20 06:53:03;;;;;;;16.17;14.23;;;;;;;;;;5068258;28;20981;-75
2022/10/20 06:55:30;;;;;;;18.70;15.07;;;;;;;;;;5068267;28;20491;-75
2022/10/20 06:57:57;;;;;;;17.97;14.70;;;;;;;;;;5072339;28;20443;-75
2022/10/20 07:00:24;;;;;;;20.20;15.30;;;;;;;;;;5071737;28;20447;-76
2022/10/20 07:02:51;;;;;;;18.43;15.20;;;;;;;;;;5070714;28;20466;-76
2022/10/20 07:05:18;;;;;;;14.80;13.20;;;;;;;;;;5075574;28;20814;-76
2022/10/20 07:07:47;;;;;;;16.33;14.33;;;;;;;;;;5074975;28;20463;-75
2022/10/20 07:10:14;;;;;;;18.90;14.07;;;;;;;;;;5069618;28;20466;-76
2022/10/20 07:12:41;;;;;;;15.33;13.63;;;;;;;;;;5074398;28;20479;-77
2022/10/20 07:15:08;;;;;;;16.40;14.10;;;;;;;;;;5075468;28;20813;-75
2022/10/20 07:17:35;;;;;;;14.70;13.20;;;;;;;;;;5075117;28;20452;-77
2022/10/20 07:20:02;;;;;;;15.30;13.80;;;;;;;;;;5074532;28;20471;-76
2022/10/20 07:22:31;;;;;;;19.90;13.30;;;;;;;;;;5074486;28;20467;-76
2022/10/20 07:25:04;;;;;;;16.60;14.90;;;;;;;;;;5075258;28;20452;-76
2022/10/20 07:27:31;;;;;;;13.73;12.30;;;;;;;;;;5075248;28;20437;-76
2022/10/20 07:29:59;;;;;;;27.47;24.53;;;;;;;;;;5075115;28;20481;-75
2022/10/20 07:32:26;;;;;;;12.47;11.23;;;;;;;;;;5074361;28;21241;-76
2022/10/20 07:34:54;;;;;;;11.93;10.90;;;;;;;;;;5072298;28;20873;-77
2022/10/20 07:37:21;;;;;;;13.17;11.93;;;;;;;;;;5073946;28;20539;-76
2022/10/20 07:39:48;;;;;;;11.50;9.87;;;;;;;;;;5074580;28;20444;-76
2022/10/20 07:42:17;;;;;;;10.63;9.53;;;;;;;;;;5075901;28;20464;-76
2022/10/20 07:44:44;;;;;;;10.37;9.43;;;;;;;;;;5075466;28;20828;-76
2022/10/20 07:47:11;;;;;;;10.20;9.30;;;;;;;;;;5077797;28;20515;-76
2022/10/20 07:49:38;;;;;;;10.50;9.70;;;;;;;;;;5075348;28;20909;-76
2022/10/20 07:52:05;;;;;;;10.23;9.27;;;;;;;;;;5087674;28;20476;-76
2022/10/20 07:54:32;;;;;;;10.63;9.70;;;;;;;;;;5094187;28;20467;-76
2022/10/20 07:56:59;;;;;;;9.40;8.60;;;;;;;;;;5096381;28;20455;-75
2022/10/20 07:59:28;;;;;;;9.17;8.27;;;;;;;;;;5095681;28;20421;-75
2022/10/20 08:01:55;;;;;;;11.87;10.67;;;;;;;;;;5085469;28;20544;-77
2022/10/20 08:04:22;;;;;;;10.07;8.53;;;;;;;;;;5081426;28;20441;-76
2022/10/20 08:06:50;;;;;;;9.27;8.10;;;;;;;;;;5079357;28;20455;-75
2022/10/20 08:09:17;;;;;;;10.57;9.57;;;;;;;;;;5076938;28;20489;-75
2022/10/20 08:11:44;;;;;;;9.07;8.27;;;;;;;;;;5076375;28;20487;-75
2022/10/20 08:14:11;;;;;;;8.70;8.00;;;;;;;;;;5074267;28;20452;-75
2022/10/20 08:16:39;;;;;;;8.20;7.50;;;;;;;;;;5073838;28;20475;-76
2022/10/20 08:19:06;;;;;;;9.90;8.20;;;;;;;;;;5071539;28;20441;-75
2022/10/20 08:21:33;;;;;;;8.90;8.10;;;;;;;;;;5071325;28;20463;-75
2022/10/20 08:24:01;;;;;;;10.07;8.03;;;;;;;;;;5070902;28;20448;-76
2022/10/20 08:26:28;;;;;;;7.87;7.03;;;;;;;;;;5070820;28;20540;-76
2022/10/20 08:28:55;;;;;;;8.80;8.00;;;;;;;;;;5071630;28;20444;-76
2022/10/20 08:31:23;;;;;;;7.93;7.23;;;;;;;;;;5070938;28;20480;-76
2022/10/20 08:33:51;;;;;;;9.27;8.37;;;;;;;;;;5070730;28;20955;-76
2022/10/20 08:36:19;;;;;;;8.07;7.27;;;;;;;;;;5070920;28;21078;-76
2022/10/20 08:38:46;;;;;;;7.67;7.00;;;;;;;;;;5070856;28;20472;-76
2022/10/20 08:41:16;;;;;;;8.57;7.30;;;;;;;;;;5070726;28;20467;-76
2022/10/20 08:43:43;;;;;;;10.27;7.60;;;;;;;;;;5070003;28;20480;-75
2022/10/20 08:46:13;;;;;;;7.57;6.87;;;;;;;;;;5071690;28;20444;-75
2022/10/20 08:48:40;;;;;;;8.33;7.37;;;;;;;;;;5070825;28;20468;-75
2022/10/20 08:51:12;;;;;;;10.83;6.90;;;;;;;;;;5070544;28;20492;-75
2022/10/20 08:53:39;;;;;;;7.93;7.20;;;;;;;;;;5069958;28;20476;-75
2022/10/20 08:56:07;;;;;;;8.60;7.70;;;;;;;;;;5070613;28;20444;-76
2022/10/20 08:58:34;;;;;;;7.67;7.13;;;;;;;;;;5070522;28;20712;-76
2022/10/20 09:01:01;;;;;;;9.20;8.30;;;;;;;;;;5070105;28;20468;-75
2022/10/20 09:03:30;;;;;;;10.00;7.83;;;;;;;;;;5069801;28;20437;-76
2022/10/20 09:06:01;;;;;;;7.67;7.00;;;;;;;;;;5070019;28;20447;-75
2022/10/20 09:08:30;;;;;;;7.20;6.60;;;;;;;;;;5069704;28;20919;-75
2022/10/20 09:10:58;;;;;;;6.97;6.33;;;;;;;;;;5069693;28;20461;-75
2022/10/20 09:13:26;;;;;;;5.93;5.43;;;;;;;;;;5052069;28;20998;-76
2022/10/20 09:15:54;;;;;;;6.37;5.97;;;;;;;;;;5049342;28;20453;-76
2022/10/20 09:18:21;;;;;;;7.03;6.33;;;;;;;;;;5048664;28;20452;-76
2022/10/20 09:20:52;;;;;;;6.93;6.23;;;;;;;;;;5048943;28;20469;-76
2022/10/20 09:23:21;;;;;;;6.73;6.13;;;;;;;;;;5049676;28;20795;-75
2022/10/20 09:25:50;;;;;;;8.53;6.30;;;;;;;;;;5048874;28;20450;-76
2022/10/20 09:28:21;;;;;;;5.90;5.17;;;;;;;;;;5049274;28;20449;-77
2022/10/20 09:30:48;;;;;;;7.70;5.93;;;;;;;;;;5049587;28;21146;-76
2022/10/20 09:33:22;;;;;;;6.03;5.43;;;;;;;;;;5048723;28;20457;-75
2022/10/20 09:35:51;;;;;;;6.00;5.50;;;;;;;;;;5050518;28;20448;-76
2022/10/20 09:38:21;;;;;;;6.93;6.23;;;;;;;;;;5050904;28;20532;-75
2022/10/20 09:40:57;;;;;;;8.63;6.23;;;;;;;;;;5049884;28;20473;-76
2022/10/20 09:43:26;;;;;;;6.70;5.27;;;;;;;;;;5048146;28;20985;-76
2022/10/20 09:45:55;;;;;;;5.97;5.37;;;;;;;;;;5049499;28;20456;-76
2022/10/20 09:48:24;;;;;;;10.20;6.33;;;;;;;;;;5049419;28;20536;-76
2022/10/20 09:50:54;;;;;;;8.93;6.77;;;;;;;;;;5064918;28;20462;-75
2022/10/20 09:53:22;;;;;;;7.27;6.70;;;;;;;;;;5071896;28;20418;-75
2022/10/20 09:55:50;;;;;;;8.70;8.00;;;;;;;;;;5068868;28;20441;-76
2022/10/20 09:58:21;;;;;;;7.67;6.97;;;;;;;;;;5069202;28;20536;-76
2022/10/20 10:00:56;;;;;;;6.40;5.90;;;;;;;;;;5058933;28;20488;-76
2022/10/20 10:03:24;;;;;;;8.33;7.47;;;;;;;;;;5049983;28;20456;-77
2022/10/20 10:05:51;;;;;;;8.73;7.93;;;;;;;;;;5051935;28;20433;-75
2022/10/20 10:08:19;;;;;;;6.87;6.37;;;;;;;;;;5052581;28;20448;-76
2022/10/20 10:10:46;;;;;;;9.33;8.43;;;;;;;;;;5054888;28;20488;-75
2022/10/20 10:13:24;;;;;;;7.70;7.00;;;;;;;;;;5068785;28;20476;-76
2022/10/20 10:15:59;;;;;;;9.70;7.07;;;;;;;;;;5072207;28;20440;-76
2022/10/20 10:18:26;;;;;;;9.10;8.17;;;;;;;;;;5070349;28;20436;-76
2022/10/20 10:20:58;;;;;;;10.53;7.50;;;;;;;;;;5069219;28;20471;-76
2022/10/20 10:23:26;;;;;;;8.40;7.70;;;;;;;;;;5069777;28;20498;-76
2022/10/20 10:25:54;;;;;;;8.90;8.00;;;;;;;;;;5068593;28;20448;-76
2022/10/20 10:28:28;;;;;;;8.17;7.40;;;;;;;;;;5069503;28;20464;-76
2022/10/20 10:31:06;;;;;;;8.73;8.03;;;;;;;;;;5069100;28;20492;-76
2022/10/20 10:33:33;;;;;;;9.50;8.30;;;;;;;;;;5068017;28;20437;-76
2022/10/20 10:36:02;;;;;;;7.47;6.80;;;;;;;;;;5068929;28;20433;-76
2022/10/20 10:38:29;;;;;;;8.50;7.03;;;;;;;;;;5068000;28;21015;-76
2022/10/20 10:41:01;;;;;;;8.10;7.50;;;;;;;;;;5068084;28;20488;-76
2022/10/20 10:43:34;;;;;;;8.10;7.50;;;;;;;;;;5068034;28;20798;-76
2022/10/20 10:46:06;;;;;;;7.33;6.80;;;;;;;;;;5067709;28;20789;-76
2022/10/20 10:48:48;;;;;;;8.37;7.40;;;;;;;;;;5067649;28;20677;-76
2022/10/20 10:51:20;;;;;;;8.33;7.63;;;;;;;;;;5068255;28;21010;-76
2022/10/20 10:53:52;;;;;;;9.70;7.03;;;;;;;;;;5067628;28;20563;-76
2022/10/20 10:56:24;;;;;;;11.23;7.23;;;;;;;;;;5068141;28;20803;-76
2022/10/20 10:58:57;;;;;;;6.93;6.27;;;;;;;;;;5067644;28;21240;-76
2022/10/20 11:01:35;;;;;;;7.23;6.50;;;;;;;;;;5068158;28;20464;-76
2022/10/20 11:04:11;;;;;;;7.57;6.77;;;;;;;;;;5067299;28;20437;-76
2022/10/20 11:06:41;;;;;;;7.20;6.70;;;;;;;;;;5068668;28;20950;-76
2022/10/20 11:09:15;;;;;;;7.77;7.07;;;;;;;;;;5067691;28;20449;-76
2022/10/20 11:11:46;;;;;;;8.83;6.33;;;;;;;;;;5068445;28;20974;-76
2022/10/20 11:14:23;;;;;;;7.67;6.37;;;;;;;;;;5069569;28;20460;-76
2022/10/20 11:16:56;;;;;;;7.13;5.83;;;;;;;;;;5068363;28;20467;-76
2022/10/20 11:19:32;;;;;;;7.60;6.80;;;;;;;;;;5067794;28;20437;-75
2022/10/20 11:22:06;;;;;;;6.90;5.50;;;;;;;;;;5067462;28;20874;-75
2022/10/20 11:24:39;;;;;;;9.70;7.13;;;;;;;;;;5067999;28;20447;-76
2022/10/20 11:27:09;;;;;;;8.17;7.10;;;;;;;;;;5073140;28;20445;-76
2022/10/20 11:29:40;;;;;;;7.23;6.00;;;;;;;;;;5074082;28;20944;-76
2022/10/20 11:32:11;;;;;;;6.97;6.23;;;;;;;;;;5073472;28;20480;-76
2022/10/20 11:34:41;;;;;;;6.30;5.80;;;;;;;;;;5071168;28;20819;-76
2022/10/20 11:37:13;;;;;;;6.90;6.17;;;;;;;;;;5072829;28;20437;-76
2022/10/20 11:39:42;;;;;;;6.07;5.50;;;;;;;;;;5069756;28;20444;-76
2022/10/20 11:42:16;;;;;;;7.80;7.00;;;;;;;;;;5068201;28;20467;-76
2022/10/20 11:44:46;;;;;;;7.27;6.60;;;;;;;;;;5068628;28;20484;-76
2022/10/20 11:47:15;;;;;;;7.27;5.80;;;;;;;;;;5069050;28;20463;-76
2022/10/20 11:49:42;;;;;;;6.90;5.83;;;;;;;;;;5069520;28;20539;-76
2022/10/20 11:52:17;;;;;;;10.63;6.40;;;;;;;;;;5072206;28;20487;-76
2022/10/20 11:54:53;;;;;;;6.40;5.90;;;;;;;;;;5070648;28;20448;-77
2022/10/20 11:57:24;;;;;;;7.27;5.80;;;;;;;;;;5071165;28;20440;-76
2022/10/20 12:00:09;;;;;;;8.13;6.60;;;;;;;;;;5071352;28;20940;-75
2022/10/20 12:02:51;;;;;;;6.93;6.10;;;;;;;;;;5060298;28;20475;-76
2022/10/20 12:05:26;;;;;;;7.53;6.90;;;;;;;;;;5057795;28;20478;-76
2022/10/20 12:08:01;;;;;;;7.30;6.60;;;;;;;;;;5064195;28;20456;-76
2022/10/20 12:10:30;;;;;;;7.27;5.87;;;;;;;;;;5070971;28;20444;-76
2022/10/20 12:13:01;;;;;;;6.97;6.37;;;;;;;;;;5070126;28;21069;-76
2022/10/20 12:15:28;;;;;;;6.73;6.10;;;;;;;;;;5067083;28;20453;-75
2022/10/20 12:17:58;;;;;;;6.57;6.00;;;;;;;;;;5055869;28;20444;-77
2022/10/20 12:21:02;;;;;;;8.90;5.97;;;;;;;;;;5070535;28;20452;-77
2022/10/20 12:23:50;;;;;;;8.47;6.20;;;;;;;;;;5069657;28;20432;-76
2022/10/20 12:26:36;;;;;;;7.20;5.70;;;;;;;;;;5066661;28;20498;-77
2022/10/20 12:29:27;;;;;;;6.07;5.43;;;;;;;;;;5071262;28;20949;-75
2022/10/20 12:32:24;;;;;;;6.33;5.73;;;;;;;;;;5069971;28;20476;-76
2022/10/20 12:34:53;;;;;;;8.90;6.40;;;;;;;;;;5007203;28;20436;-76
2022/10/20 12:37:21;;;;;;;8.90;6.30;;;;;;;;;;5056353;28;20449;-75
2022/10/20 12:39:48;;;;;;;10.10;6.30;;;;;;;;;;5070548;28;20467;-77
2022/10/20 12:42:20;;;;;;;9.70;5.90;;;;;;;;;;5070290;28;20464;-76
2022/10/20 12:44:49;;;;;;;7.50;6.77;;;;;;;;;;5070065;28;21225;-76
2022/10/20 12:47:20;;;;;;;6.20;5.60;;;;;;;;;;5071447;28;20454;-76
2022/10/20 12:49:52;;;;;;;9.37;6.70;;;;;;;;;;5071156;28;20452;-77
2022/10/20 12:52:21;;;;;;;5.67;5.17;;;;;;;;;;5069925;28;20479;-75
2022/10/20 12:54:54;;;;;;;6.57;5.97;;;;;;;;;;5070837;28;20448;-77
2022/10/20 12:57:26;;;;;;;5.90;5.30;;;;;;;;;;5070354;28;20463;-77
2022/10/20 12:59:55;;;;;;;9.30;5.80;;;;;;;;;;5070229;28;20448;-76
2022/10/20 13:02:40;;;;;;;8.40;5.63;;;;;;;;;;5069736;28;20452;-75
2022/10/20 13:05:28;;;;;;;6.33;5.73;;;;;;;;;;5070077;28;20522;-76
2022/10/20 13:08:03;;;;;;;6.37;5.73;;;;;;;;;;5070854;28;20436;-76
2022/10/20 13:10:32;;;;;;;10.20;9.20;;;;;;;;;;5071355;28;20450;-76
2022/10/20 13:13:15;;;;;;;8.30;6.73;;;;;;;;;;5071874;28;20473;-78
2022/10/20 13:15:47;;;;;;;8.23;6.73;;;;;;;;;;5071317;28;20445;-77
2022/10/20 13:18:16;;;;;;;8.33;6.43;;;;;;;;;;5074196;28;20424;-75
2022/10/20 13:20:45;;;;;;;7.07;6.47;;;;;;;;;;5071257;28;20466;-76
2022/10/20 13:23:13;;;;;;;7.30;6.60;;;;;;;;;;5069728;28;20444;-75
2022/10/20 13:25:41;;;;;;;8.33;6.67;;;;;;;;;;5070263;28;20440;-75
2022/10/20 13:28:17;;;;;;;8.00;6.80;;;;;;;;;;5069932;28;20440;-75
2022/10/20 13:30:55;;;;;;;7.30;6.63;;;;;;;;;;5070521;28;20471;-76
2022/10/20 13:33:28;;;;;;;7.57;6.80;;;;;;;;;;5069516;28;20460;-75
2022/10/20 13:36:01;;;;;;;6.80;6.10;;;;;;;;;;5069708;28;20429;-75
2022/10/20 13:38:31;;;;;;;8.70;7.90;;;;;;;;;;5070806;28;20502;-75
2022/10/20 13:41:00;;;;;;;7.77;7.17;;;;;;;;;;5071514;28;20475;-76
2022/10/20 13:43:31;;;;;;;7.87;7.17;;;;;;;;;;5069725;28;20564;-75
2022/10/20 13:46:05;;;;;;;8.43;7.63;;;;;;;;;;5069724;28;20437;-76
2022/10/20 13:48:38;;;;;;;9.33;8.43;;;;;;;;;;5068887;28;20841;-76
2022/10/20 13:51:06;;;;;;;8.80;7.90;;;;;;;;;;5064275;28;20470;-75
2022/10/20 13:53:34;;;;;;;8.60;7.70;;;;;;;;;;5066776;28;20884;-75
2022/10/20 13:56:04;;;;;;;8.30;7.60;;;;;;;;;;5068048;28;20437;-76
2022/10/20 13:58:31;;;;;;;11.60;8.30;;;;;;;;;;5068828;28;20452;-77
2022/10/20 14:00:59;;;;;;;8.37;7.60;;;;;;;;;;5070157;28;20456;-76
2022/10/20 14:03:28;;;;;;;9.40;8.50;;;;;;;;;;5069866;28;20791;-76
2022/10/20 14:05:57;;;;;;;8.73;7.90;;;;;;;;;;5069893;28;20559;-75
2022/10/20 14:08:24;;;;;;;9.27;8.03;;;;;;;;;;5070131;28;20448;-76
2022/10/20 14:10:54;;;;;;;23.77;21.30;;;;;;;;;;5066057;28;20477;-76
2022/10/20 14:13:22;;;;;;;11.20;10.20;;;;;;;;;;5062074;28;20485;-76
2022/10/20 14:15:50;;;;;;;8.10;7.40;;;;;;;;;;5060921;28;20816;-76
2022/10/20 14:18:22;;;;;;;15.63;7.40;;;;;;;;;;5065286;28;20448;-77
2022/10/20 14:20:56;;;;;;;7.13;6.50;;;;;;;;;;5068948;28;20464;-77
2022/10/20 14:23:23;;;;;;;8.67;7.97;;;;;;;;;;5063188;28;20566;-77
2022/10/20 14:25:51;;;;;;;7.70;6.97;;;;;;;;;;5064541;28;20809;-75
2022/10/20 14:28:20;;;;;;;13.13;7.93;;;;;;;;;;5069275;28;20445;-76
2022/10/20 14:30:47;;;;;;;9.00;8.17;;;;;;;;;;5068899;28;20479;-78
2022/10/20 14:33:15;;;;;;;8.10;7.37;;;;;;;;;;5068674;28;20476;-75
2022/10/20 14:35:44;;;;;;;9.37;8.47;;;;;;;;;;5069621;28;20499;-76
2022/10/20 14:38:18;;;;;;;7.60;6.97;;;;;;;;;;5068759;28;20479;-76
2022/10/20 14:40:50;;;;;;;9.27;8.40;;;;;;;;;;5068818;28;20863;-75